Terminal Aerodrome Forecast
Issued by NWS

Home | Current Version | Previous Version | Text Only | Print | Product List | Glossary Off
Versions: 1 2 3 4 5 6 7 8 9 10 11 12 13 14 15

000
FTUS43 KTOP 181100
TAFFOE
TAF
KFOE 181124Z 1812/1912 13003KT 3SM BR SCT200
     FM181400 16007KT 6SM HZ FEW200
     FM181800 16012KT P6SM SKC=

USA.gov is the U.S. government's official web portal to all federal, state and local government web resources and services.